Time;durP1;ratioP1;P1;durP2;ratioP2;P2;SDS_P1;SDS_P2;PMS_P1;PMS_P2;Temp;Humidity;BMP_temperature;BMP_pressure;BME280_temperature;BME280_humidity;BME280_pressure;Samples;Min_cycle;Max_cycle;Signal;HPM_P1;HPM_P2
2023/06/24 00:01:23;;;;;;;16.50;12.10;;;;;;;29.37;92.53;100426.58;105646;1260;60527;-78
2023/06/24 00:04:14;;;;;;;17.90;11.60;;;;;;;29.29;91.89;100428.15;105823;1260;60453;-78
2023/06/24 00:07:03;;;;;;;14.70;11.50;;;;;;;29.08;91.90;100426.75;105663;1254;63646;-77
2023/06/24 00:09:52;;;;;;;15.80;11.40;;;;;;;28.86;91.65;100423.84;105706;1259;62645;-77
2023/06/24 00:12:41;;;;;;;17.90;12.10;;;;;;;28.72;92.11;100428.61;105992;1257;63925;-78
2023/06/24 00:15:30;;;;;;;16.90;12.10;;;;;;;28.57;92.82;100429.50;105812;1259;61127;-79
2023/06/24 00:18:19;;;;;;;15.60;11.60;;;;;;;28.64;91.20;100430.38;105683;1254;60550;-78
2023/06/24 00:21:08;;;;;;;15.50;11.40;;;;;;;28.65;89.72;100435.20;105600;1254;64954;-77
2023/06/24 00:23:57;;;;;;;16.70;12.50;;;;;;;28.63;89.53;100437.13;105801;1255;60434;-78
2023/06/24 00:26:46;;;;;;;18.60;12.40;;;;;;;28.42;91.11;100430.06;106083;1261;63729;-78
2023/06/24 00:29:35;;;;;;;16.00;12.30;;;;;;;28.40;90.26;100429.98;105523;1257;60547;-77
2023/06/24 00:32:24;;;;;;;17.30;12.20;;;;;;;28.09;92.48;100423.77;105605;1262;60521;-78
2023/06/24 00:35:14;;;;;;;15.60;11.80;;;;;;;28.21;91.36;100418.64;105928;1254;73946;-78
2023/06/24 00:38:03;;;;;;;15.20;11.10;;;;;;;28.36;89.27;100416.64;105668;1254;60527;-78
2023/06/24 00:40:52;;;;;;;16.10;12.50;;;;;;;28.47;88.48;100417.86;105836;1260;63339;-78
2023/06/24 00:43:41;;;;;;;16.90;11.60;;;;;;;28.49;87.72;100416.65;105683;1261;60415;-78
2023/06/24 00:46:33;;;;;;;19.50;12.80;;;;;;;28.38;88.58;100412.23;105589;1254;60349;-78
2023/06/24 00:49:22;;;;;;;15.60;12.00;;;;;;;28.46;88.68;100414.40;105675;1261;64928;-78
2023/06/24 00:52:15;;;;;;;15.50;11.90;;;;;;;28.75;85.08;100406.59;105778;1254;60731;-78
2023/06/24 00:55:04;;;;;;;16.70;12.30;;;;;;;28.93;81.75;100402.05;105737;1260;63729;-79
2023/06/24 00:57:53;;;;;;;17.90;11.90;;;;;;;28.37;86.10;100407.55;105560;1255;60434;-79
2023/06/24 01:00:45;;;;;;;20.00;12.60;;;;;;;27.86;91.72;100409.35;105677;1254;60462;-77
2023/06/24 01:03:33;;;;;;;18.70;13.10;;;;;;;28.10;92.18;100404.27;105739;1260;67048;-78
2023/06/24 01:06:23;;;;;;;17.10;12.70;;;;;;;28.25;91.59;100404.45;105675;1254;60542;-77
2023/06/24 01:09:12;;;;;;;19.90;13.90;;;;;;;28.38;91.06;100411.04;105653;1260;62583;-78
2023/06/24 01:12:00;;;;;;;16.60;12.20;;;;;;;28.46;90.93;100412.49;105536;1262;60463;-77
2023/06/24 01:14:51;;;;;;;18.30;12.00;;;;;;;28.56;90.63;100409.91;105998;1261;62621;-78
2023/06/24 01:17:46;;;;;;;16.70;11.50;;;;;;;28.63;90.54;100407.02;105718;1256;66182;-77
2023/06/24 01:20:52;;;;;;;16.70;11.50;;;;;;;28.68;90.18;100406.19;105642;1254;60492;-78
2023/06/24 01:23:56;;;;;;;16.40;11.70;;;;;;;28.68;89.93;100406.27;106121;1254;63744;-78
2023/06/24 01:27:19;;;;;;;15.50;11.80;;;;;;;27.93;96.52;100409.20;105654;1254;60529;-77
2023/06/24 01:30:46;;;;;;;16.70;12.70;;;;;;;28.25;94.51;100407.26;105620;1255;60604;-77
2023/06/24 01:33:44;;;;;;;15.60;12.10;;;;;;;28.31;92.94;100398.98;105729;1254;64938;-77
2023/06/24 01:36:34;;;;;;;18.80;12.20;;;;;;;28.17;93.42;100396.58;105981;1260;60341;-77
2023/06/24 01:39:23;;;;;;;16.90;12.50;;;;;;;28.12;92.96;100397.77;105748;1254;62477;-78
2023/06/24 01:42:12;;;;;;;15.70;12.40;;;;;;;28.09;93.40;100401.86;105578;1254;60878;-80
2023/06/24 01:45:01;;;;;;;17.50;12.00;;;;;;;28.10;93.63;100400.74;105694;1253;60460;-79
2023/06/24 01:47:57;;;;;;;17.70;12.20;;;;;;;28.13;93.38;100403.23;105740;1260;64955;-79
2023/06/24 01:51:01;;;;;;;16.80;12.30;;;;;;;27.61;96.94;100407.68;106142;1259;60469;-78
2023/06/24 01:53:54;;;;;;;16.00;12.70;;;;;;;27.51;99.14;100405.41;105445;1254;63757;-78
2023/06/24 01:56:43;;;;;;;17.60;12.80;;;;;;;27.77;97.68;100408.30;105659;1257;60536;-79
2023/06/24 01:59:31;;;;;;;17.00;12.00;;;;;;;27.98;96.29;100409.89;105865;1259;60426;-79
2023/06/24 02:02:20;;;;;;;16.10;11.80;;;;;;;28.05;95.82;100409.50;105551;1260;64988;-79
2023/06/24 02:05:09;;;;;;;15.10;11.80;;;;;;;28.07;95.86;100410.62;105652;1260;60405;-79
2023/06/24 02:07:58;;;;;;;16.70;12.80;;;;;;;28.05;96.10;100413.26;106368;1257;63770;-79
2023/06/24 02:10:46;;;;;;;16.60;11.80;;;;;;;27.33;99.24;100412.63;105698;1259;60472;-77
2023/06/24 02:13:35;;;;;;;16.20;11.50;;;;;;;27.53;100.00;100412.46;105574;1257;60444;-78
2023/06/24 02:16:24;;;;;;;16.70;11.80;;;;;;;27.78;100.00;100415.53;105572;1253;65336;-77
2023/06/24 02:19:17;;;;;;;17.10;12.90;;;;;;;27.82;100.00;100419.73;105624;1254;60461;-77
2023/06/24 02:22:09;;;;;;;;;;;;;;;27.79;100.00;100423.07;105763;1260;62533;-78
2023/06/24 02:24:58;;;;;;;17.20;12.70;;;;;;;27.78;100.00;100425.15;105687;1256;60546;-79
2023/06/24 02:27:47;;;;;;;17.00;12.50;;;;;;;27.66;100.00;100428.89;105669;1254;60568;-77
2023/06/24 02:30:38;;;;;;;16.80;12.80;;;;;;;27.73;100.00;100430.10;105607;1253;65405;-77
2023/06/24 02:33:26;;;;;;;17.30;12.40;;;;;;;27.80;100.00;100433.90;105597;1260;60445;-77
2023/06/24 02:36:15;;;;;;;17.50;12.80;;;;;;;27.89;99.69;100432.98;105694;1254;63771;-77
2023/06/24 02:39:04;;;;;;;18.80;13.00;;;;;;;27.86;98.93;100435.94;105779;1260;60546;-77
2023/06/24 02:41:52;;;;;;;16.80;13.00;;;;;;;27.84;99.17;100435.39;105874;1253;60441;-80
2023/06/24 02:44:42;;;;;;;18.30;14.00;;;;;;;27.67;99.88;100437.06;105719;1259;64931;-77
2023/06/24 02:47:31;;;;;;;18.50;13.70;;;;;;;27.73;99.73;100429.53;105750;1260;60409;-79
2023/06/24 02:50:20;;;;;;;17.40;11.90;;;;;;;27.72;99.97;100431.63;105804;1253;63799;-77
2023/06/24 02:53:09;;;;;;;18.30;12.90;;;;;;;27.22;100.00;100433.48;105846;1254;60443;-78
2023/06/24 02:55:58;;;;;;;18.50;12.60;;;;;;;27.43;100.00;100437.05;105851;1254;60384;-77
2023/06/24 02:58:48;;;;;;;19.20;13.40;;;;;;;27.63;100.00;100436.02;105646;1254;65435;-76
2023/06/24 03:01:45;;;;;;;18.00;12.90;;;;;;;27.89;100.00;100432.16;105574;1254;60430;-77
2023/06/24 03:04:34;;;;;;;20.40;13.00;;;;;;;28.04;100.00;100430.36;105656;1254;66084;-78
2023/06/24 03:07:23;;;;;;;19.40;13.20;;;;;;;28.18;100.00;100430.92;105515;1253;60593;-78
2023/06/24 03:10:14;;;;;;;18.30;13.30;;;;;;;28.32;100.00;100428.93;105879;1254;60646;-78
2023/06/24 03:13:03;;;;;;;20.40;13.40;;;;;;;28.41;100.00;100435.11;105577;1260;65127;-78
2023/06/24 03:15:58;;;;;;;17.80;13.40;;;;;;;28.59;100.00;100439.55;105544;1261;70568;-79
2023/06/24 03:18:47;;;;;;;17.40;12.60;;;;;;;28.76;100.00;100446.43;105575;1257;63717;-78
2023/06/24 03:21:36;;;;;;;18.00;13.10;;;;;;;28.94;100.00;100447.36;105619;1261;60455;-78
2023/06/24 03:24:31;;;;;;;18.90;13.30;;;;;;;29.11;100.00;100441.55;105907;1254;60641;-79
2023/06/24 03:27:20;;;;;;;18.90;12.30;;;;;;;29.24;100.00;100437.97;105652;1259;63643;-78
2023/06/24 03:30:12;;;;;;;17.40;12.00;;;;;;;29.11;100.00;100438.35;105499;1254;60791;-78
2023/06/24 03:33:01;;;;;;;16.20;11.50;;;;;;;29.31;100.00;100436.02;105841;1257;71455;-78
